Remicourt, Belgium
Current Conditions -  °F | °C
As of 2:20 AM on Wednesday 28 Jan 2015 (Local Time) from EBLG Reporting Station
Haze Haze  
Wind Chill: 33°   Ceiling: 3700
Heat Index: 37°   Visibility: 2.1mi
Dew Point: 36°   Wind: 6mph
Humidity: 93%   Direction: 180°S
Pressure: 30.12"   Gusts: NA
Location:  50.68°N, 5.33°E
Report Text: EBLG 280120Z 18005KT 3500 BR SCT007 BKN037 03/02 Q1020 TEMPO 3000 -DZ BKN004
Loading
Personal Weather Stations






























Interactive Weather Map New forecast layout! Learn more

10-Day Weather Forecast

Advertisements
Track Severe Weather on mobile